createdAt,value
2022-10-26T00:00:52.056Z,98793.25
2022-10-26T00:03:19.171Z,98793.25
2022-10-26T00:05:46.102Z,98788.88
2022-10-26T00:08:13.108Z,98792.69
2022-10-26T00:10:40.027Z,98788.03
2022-10-26T00:13:09.263Z,98789.09
2022-10-26T00:15:36.186Z,98793.75
2022-10-26T00:18:03.108Z,98797.53
2022-10-26T00:20:30.083Z,98794.44
2022-10-26T00:22:56.976Z,98799.09
2022-10-26T00:25:24.089Z,98788.97
2022-10-26T00:27:51.576Z,98798.25
2022-10-26T00:30:18.749Z,98796.34
2022-10-26T00:32:45.651Z,98790.03
2022-10-26T00:35:22.865Z,98790.03
2022-10-26T00:37:55.574Z,98794.69
2022-10-26T00:40:23.171Z,98793.84
2022-10-26T00:42:50.276Z,98797.69
2022-10-26T00:45:22.050Z,98807.81
2022-10-26T00:47:59.341Z,98794.13
2022-10-26T00:50:46.914Z,98788.88
2022-10-26T00:53:13.811Z,98796.25
2022-10-26T00:55:47.693Z,98793.78
2022-10-26T00:58:14.604Z,98787.72
2022-10-26T01:00:42.226Z,98787.13
2022-10-26T01:03:09.495Z,98777.50
2022-10-26T01:05:41.769Z,98783.81
2022-10-26T01:08:28.302Z,98774.53
2022-10-26T01:11:11.478Z,98780.00
2022-10-26T01:13:55.029Z,98772.03
2022-10-26T01:16:54.948Z,98783.81
2022-10-26T01:19:42.843Z,98783.81
2022-10-26T01:22:42.545Z,98790.63
2022-10-26T01:25:38.459Z,98788.97
2022-10-26T01:28:13.217Z,98784.31
2022-10-26T01:30:41.039Z,98785.63
2022-10-26T01:33:11.036Z,98784.78
2022-10-26T01:35:43.918Z,98785.91
2022-10-26T01:38:18.716Z,98781.50
2022-10-26T01:40:57.075Z,98790.16
2022-10-26T01:43:24.072Z,98791.28
2022-10-26T01:45:51.131Z,98787.69
2022-10-26T01:48:19.032Z,98793.19
2022-10-26T01:50:46.901Z,98789.59
2022-10-26T01:53:16.713Z,98789.59
2022-10-26T01:55:51.232Z,98787.09
2022-10-26T01:58:45.899Z,98793.41
2022-10-26T02:01:43.091Z,98798.06
2022-10-26T02:07:09.643Z,98790.09
2022-10-26T02:09:42.190Z,98793.66
2022-10-26T02:12:46.182Z,98795.56
2022-10-26T02:15:23.776Z,98792.00
2022-10-26T02:18:19.216Z,98796.66
2022-10-26T02:20:48.922Z,98795.22
2022-10-26T02:23:15.900Z,98792.75
2022-10-26T02:25:46.636Z,98796.53
2022-10-26T02:28:20.087Z,98800.94
2022-10-26T02:30:47.075Z,98802.03
2022-10-26T02:33:14.176Z,98792.97
2022-10-26T02:35:41.743Z,98797.38
2022-10-26T02:38:10.798Z,98792.16
2022-10-26T02:40:37.797Z,98789.41
2022-10-26T02:43:11.400Z,98801.41
2022-10-26T02:45:43.225Z,98804.16
2022-10-26T02:48:10.120Z,98804.16
2022-10-26T02:50:43.516Z,98798.69
2022-10-26T02:53:30.581Z,98786.09
2022-10-26T02:55:57.519Z,98792.38
2022-10-26T02:58:29.456Z,98803.31
2022-10-26T03:00:56.390Z,98797.03
2022-10-26T03:03:23.342Z,98797.50
2022-10-26T03:05:50.277Z,98801.31
2022-10-26T03:08:17.813Z,98805.72
2022-10-26T03:10:45.735Z,98805.72
2022-10-26T03:13:13.246Z,98794.78
2022-10-26T03:15:40.198Z,98803.00
2022-10-26T03:18:07.236Z,98810.13
2022-10-26T03:20:34.189Z,98803.25
2022-10-26T03:23:01.211Z,98802.41
2022-10-26T03:25:28.232Z,98815.84
2022-10-26T03:28:01.737Z,98804.88
2022-10-26T03:30:29.112Z,98798.34
2022-10-26T03:32:56.005Z,98807.63
2022-10-26T03:35:22.982Z,98806.78
2022-10-26T03:37:50.367Z,98818.56
2022-10-26T03:40:17.486Z,98805.16
2022-10-26T03:42:44.453Z,98808.97
2022-10-26T03:45:11.415Z,98811.94
2022-10-26T03:47:45.699Z,98809.47
2022-10-26T03:50:16.167Z,98811.94
2022-10-26T03:52:43.120Z,98820.97
2022-10-26T03:55:10.619Z,98818.25
2022-10-26T03:57:41.974Z,98819.06
2022-10-26T04:00:10.596Z,98808.34
2022-10-26T04:02:37.528Z,98814.94
2022-10-26T04:05:04.885Z,98814.09
2022-10-26T04:07:31.844Z,98814.09
2022-10-26T04:09:58.769Z,98818.47
2022-10-26T04:12:25.926Z,98817.41
2022-10-26T04:14:53.016Z,98813.38
2022-10-26T04:17:20.054Z,98815.00
2022-10-26T04:19:48.046Z,98812.25
2022-10-26T04:22:15.064Z,98818.34
2022-10-26T04:24:42.253Z,98810.63
2022-10-26T04:27:09.150Z,98825.59
2022-10-26T04:29:36.090Z,98822.53
2022-10-26T04:32:03.143Z,98822.53
2022-10-26T04:34:30.046Z,98817.06
2022-10-26T04:36:56.988Z,98829.06
2022-10-26T04:39:24.137Z,98830.13
2022-10-26T04:41:51.057Z,98820.28
2022-10-26T04:44:17.952Z,98828.50
2022-10-26T04:46:44.922Z,98825.78
2022-10-26T04:49:12.585Z,98830.63
2022-10-26T04:51:39.525Z,98834.44
2022-10-26T04:54:06.465Z,98834.44
2022-10-26T04:56:34.386Z,98826.22
2022-10-26T04:59:01.516Z,98823.50
2022-10-26T05:01:28.541Z,98823.50
2022-10-26T05:03:55.641Z,98821.50
2022-10-26T05:06:22.747Z,98828.41
2022-10-26T05:08:49.708Z,98831.13
2022-10-26T05:11:16.806Z,98829.47
2022-10-26T05:13:43.719Z,98824.00
2022-10-26T05:16:10.646Z,98829.47
2022-10-26T05:18:37.570Z,98833.03
2022-10-26T05:21:04.572Z,98844.81
2022-10-26T05:23:32.887Z,98829.47
2022-10-26T05:25:59.967Z,98830.53
2022-10-26T05:28:26.879Z,98833.25
2022-10-26T05:30:53.804Z,98830.53
2022-10-26T05:33:20.709Z,98834.38
2022-10-26T05:35:47.878Z,98828.91
2022-10-26T05:38:16.279Z,98830.78
2022-10-26T05:40:53.536Z,98829.13
2022-10-26T05:43:21.415Z,98838.16
2022-10-26T05:45:49.853Z,98840.28
2022-10-26T05:48:16.898Z,98841.38
2022-10-26T05:50:43.788Z,98838.88
2022-10-26T05:53:10.750Z,98843.53
2022-10-26T05:55:38.049Z,98849.00
2022-10-26T05:58:05.257Z,98847.94
2022-10-26T06:00:32.514Z,98850.66
2022-10-26T06:03:08.406Z,98845.19
2022-10-26T06:05:39.379Z,98850.66
2022-10-26T06:08:10.838Z,98842.69
2022-10-26T06:10:39.234Z,98849.22
2022-10-26T06:13:06.454Z,98857.44
2022-10-26T06:15:34.046Z,98854.69
2022-10-26T06:18:06.668Z,98862.06
2022-10-26T06:20:44.828Z,98864.22
2022-10-26T06:23:34.778Z,98860.44
2022-10-26T06:26:03.268Z,98865.91
2022-10-26T06:28:58.367Z,98867.81
2022-10-26T06:31:25.270Z,98874.34
2022-10-26T06:33:54.101Z,98876.47
2022-10-26T06:36:25.457Z,98875.19
2022-10-26T06:39:03.987Z,98881.47
2022-10-26T06:41:34.882Z,98888.59
2022-10-26T06:44:02.945Z,98887.78
2022-10-26T06:46:37.892Z,98882.31
2022-10-26T06:49:20.220Z,98885.06
2022-10-26T06:52:33.346Z,98886.13
2022-10-26T06:55:01.059Z,98885.06
2022-10-26T06:57:34.521Z,98883.97
2022-10-26T07:00:05.421Z,98888.38
2022-10-26T07:02:32.520Z,98883.97
2022-10-26T07:04:59.599Z,98891.09
2022-10-26T07:07:27.912Z,98894.44
2022-10-26T07:09:54.915Z,98897.16
2022-10-26T07:13:21.671Z,98898.47
2022-10-26T07:15:48.723Z,98903.94
2022-10-26T07:18:15.655Z,98905.59
2022-10-26T07:20:42.786Z,98914.41
2022-10-26T07:23:13.012Z,98917.16
2022-10-26T07:26:29.768Z,98910.84
2022-10-26T07:28:56.688Z,98917.97
2022-10-26T07:31:23.693Z,98925.09
2022-10-26T07:33:50.619Z,98914.75
2022-10-26T07:36:17.556Z,98915.59
2022-10-26T07:38:44.466Z,98921.91
2022-10-26T07:41:11.411Z,98922.47
2022-10-26T07:43:38.320Z,98927.13
2022-10-26T07:46:05.407Z,98927.97
2022-10-26T07:48:32.345Z,98927.97
2022-10-26T07:51:02.971Z,98919.75
2022-10-26T07:53:30.300Z,98917.00
2022-10-26T07:55:57.544Z,98917.00
2022-10-26T07:58:26.375Z,98918.69
2022-10-26T08:00:53.578Z,98925.00
2022-10-26T08:03:20.889Z,98918.41
2022-10-26T08:05:48.370Z,98922.81
2022-10-26T08:08:15.293Z,98916.53
2022-10-26T08:10:45.538Z,98912.94
2022-10-26T08:13:12.681Z,98919.03
2022-10-26T08:15:39.687Z,98915.44
2022-10-26T08:18:06.778Z,98919.03
2022-10-26T08:20:33.782Z,98925.34
2022-10-26T08:23:01.564Z,98914.38
2022-10-26T08:25:28.593Z,98919.84
2022-10-26T08:27:55.639Z,98914.38
2022-10-26T08:30:22.629Z,98919.84
2022-10-26T08:32:49.919Z,98916.06
2022-10-26T08:35:17.110Z,98916.91
2022-10-26T08:37:44.060Z,98924.00
2022-10-26T08:40:15.168Z,98916.63
2022-10-26T08:42:44.689Z,98916.63
2022-10-26T08:45:30.519Z,98913.91
2022-10-26T08:48:02.059Z,98911.16
2022-10-26T08:50:31.843Z,98921.03
2022-10-26T08:53:04.108Z,98913.06
2022-10-26T08:55:46.543Z,98915.56
2022-10-26T08:58:17.982Z,98907.59
2022-10-26T09:00:45.480Z,98910.09
2022-10-26T09:03:16.369Z,98912.84
2022-10-26T09:06:20.721Z,98914.72
2022-10-26T09:09:04.144Z,98915.56
2022-10-26T09:11:42.200Z,98905.69
2022-10-26T09:14:21.127Z,98913.06
2022-10-26T09:17:09.087Z,98912.84
2022-10-26T09:19:51.366Z,98915.56
2022-10-26T09:22:22.827Z,98912.00
2022-10-26T09:24:54.025Z,98909.25
2022-10-26T09:27:30.181Z,98922.72
2022-10-26T09:29:58.243Z,98923.53
2022-10-26T09:32:31.637Z,98918.53
2022-10-26T09:35:00.745Z,98923.53
2022-10-26T09:37:31.479Z,98927.13
2022-10-26T09:40:18.684Z,98916.16
2022-10-26T09:43:01.825Z,98924.38
2022-10-26T09:45:31.848Z,98932.59
2022-10-26T09:48:11.848Z,98933.41
2022-10-26T09:50:40.008Z,98931.50
2022-10-26T09:53:06.962Z,98932.59
2022-10-26T09:55:34.323Z,98924.38
2022-10-26T09:58:04.499Z,98923.28
2022-10-26T10:00:31.731Z,98923.28
2022-10-26T10:02:59.063Z,98926.03
2022-10-26T10:05:49.653Z,98933.16
2022-10-26T10:08:26.974Z,98926.63
2022-10-26T10:11:11.489Z,98923.88
2022-10-26T10:13:45.558Z,98918.41
2022-10-26T10:16:25.378Z,98924.72
2022-10-26T10:18:59.385Z,98931.88
2022-10-26T10:21:39.882Z,98925.56
2022-10-26T10:24:27.168Z,98922.56
2022-10-26T10:27:03.973Z,98928.03
2022-10-26T10:29:35.322Z,98923.41
2022-10-26T10:32:03.312Z,98925.06
2022-10-26T10:34:33.617Z,98919.59
2022-10-26T10:37:00.975Z,98922.94
2022-10-26T10:39:34.720Z,98922.66
2022-10-26T10:42:02.391Z,98925.41
2022-10-26T10:44:30.315Z,98919.69
2022-10-26T10:47:03.863Z,98921.38
2022-10-26T10:49:30.917Z,98920.28
2022-10-26T10:51:58.032Z,98920.88
2022-10-26T10:54:33.375Z,98917.91
2022-10-26T10:57:07.745Z,98924.22
2022-10-26T11:00:02.317Z,98914.91
2022-10-26T11:02:49.246Z,98914.69
2022-10-26T11:05:37.450Z,98915.50
2022-10-26T11:08:22.706Z,98916.34
2022-10-26T11:10:52.800Z,98915.28
2022-10-26T11:13:25.483Z,98916.09
2022-10-26T11:15:55.796Z,98915.84
2022-10-26T11:18:57.014Z,98914.56
2022-10-26T11:21:29.132Z,98921.66
2022-10-26T11:24:11.255Z,98925.25
2022-10-26T11:26:46.584Z,98924.19
2022-10-26T11:29:39.491Z,98923.94
2022-10-26T11:32:23.339Z,98923.69
2022-10-26T11:35:00.304Z,98928.31
2022-10-26T11:37:34.778Z,98917.13
2022-10-26T11:40:27.679Z,98925.13
2022-10-26T11:43:17.531Z,98913.06
2022-10-26T11:46:13.867Z,98920.22
2022-10-26T11:49:44.805Z,98918.06
2022-10-26T11:52:40.757Z,98911.25
2022-10-26T11:55:09.552Z,98912.09
2022-10-26T11:57:36.953Z,98910.81
2022-10-26T12:00:08.840Z,98906.13
2022-10-26T12:05:16.593Z,98907.31
2022-10-26T12:07:55.245Z,98907.31
2022-10-26T12:10:33.337Z,98909.59
2022-10-26T12:13:15.338Z,98921.13
2022-10-26T12:16:02.915Z,98906.34
2022-10-26T12:18:55.866Z,98913.50
2022-10-26T12:21:25.594Z,98914.34
2022-10-26T12:24:02.853Z,98917.91
2022-10-26T12:26:29.705Z,98918.75
2022-10-26T12:29:02.502Z,98918.50
2022-10-26T12:31:38.403Z,98913.00
2022-10-26T12:34:06.372Z,98919.09
2022-10-26T12:36:57.904Z,98918.03
2022-10-26T12:39:37.191Z,98915.00
2022-10-26T12:42:09.948Z,98913.09
2022-10-26T12:44:41.451Z,98906.56
2022-10-26T12:47:09.371Z,98914.53
2022-10-26T12:50:06.911Z,98909.06
2022-10-26T12:52:52.713Z,98912.63
2022-10-26T12:55:46.012Z,98904.41
2022-10-26T12:58:36.008Z,98907.72
2022-10-26T13:01:03.661Z,98908.31
2022-10-26T13:03:33.342Z,98910.56
2022-10-26T13:06:23.673Z,98905.09
2022-10-26T13:08:56.232Z,98906.25
2022-10-26T13:11:30.760Z,98896.72
2022-10-26T13:13:59.128Z,98905.28
2022-10-26T13:16:27.232Z,98896.78
2022-10-26T13:18:54.167Z,98894.66
2022-10-26T13:21:21.444Z,98904.25
2022-10-26T13:24:01.907Z,98900.22
2022-10-26T13:26:29.845Z,98901.63
2022-10-26T13:29:01.427Z,98895.91
2022-10-26T13:31:34.675Z,98897.31
2022-10-26T13:34:21.445Z,98905.28
2022-10-26T13:37:13.354Z,98903.94
2022-10-26T13:39:42.385Z,98898.47
2022-10-26T13:42:14.249Z,98905.63
2022-10-26T13:45:07.053Z,98902.63
2022-10-26T13:47:43.905Z,98903.47
2022-10-26T13:50:20.999Z,98904.31
2022-10-26T13:52:50.000Z,98905.94
2022-10-26T13:55:40.108Z,98913.09
2022-10-26T13:58:43.280Z,98913.94
2022-10-26T14:01:10.559Z,98915.59
2022-10-26T14:03:37.812Z,98922.97
2022-10-26T14:06:34.836Z,98915.59
2022-10-26T14:09:15.055Z,98915.59
2022-10-26T14:11:52.470Z,98911.78
2022-10-26T14:14:21.811Z,98910.69
2022-10-26T14:16:49.699Z,98911.78
2022-10-26T14:19:19.081Z,98909.88
2022-10-26T14:21:50.202Z,98917.25
2022-10-26T14:24:53.079Z,98910.69
2022-10-26T14:27:22.559Z,98920.56
2022-10-26T14:30:10.152Z,98920.56
2022-10-26T14:32:37.914Z,98925.22
2022-10-26T14:35:05.120Z,98925.22
2022-10-26T14:37:34.744Z,98921.41
2022-10-26T14:40:01.676Z,98918.91
2022-10-26T14:42:33.279Z,98920.84
2022-10-26T14:45:00.254Z,98926.06
2022-10-26T14:47:31.527Z,98931.53
2022-10-26T14:52:31.161Z,98928.78
2022-10-26T14:55:05.686Z,98918.91
2022-10-26T14:57:36.583Z,98928.22
2022-10-26T15:00:15.714Z,98927.41
2022-10-26T15:05:35.776Z,98944.91
2022-10-26T15:08:03.533Z,98936.69
2022-10-26T15:10:36.479Z,98941.34
2022-10-26T15:13:18.245Z,98942.41
2022-10-26T15:15:48.556Z,98936.09
2022-10-26T15:18:28.945Z,98931.72
2022-10-26T15:20:56.403Z,98937.44
2022-10-26T15:23:24.063Z,98934.09
2022-10-26T15:25:59.079Z,98945.06
2022-10-26T15:28:33.030Z,98947.78
2022-10-26T15:31:03.610Z,98952.47
2022-10-26T15:33:30.759Z,98952.72
2022-10-26T15:36:19.934Z,98958.19
2022-10-26T15:38:48.329Z,98952.13
2022-10-26T15:41:18.754Z,98958.44
2022-10-26T15:43:49.089Z,98954.03
2022-10-26T15:46:16.046Z,98969.91
2022-10-26T15:48:43.059Z,98968.00
2022-10-26T15:51:18.932Z,98969.91
2022-10-26T15:53:45.872Z,98969.06
2022-10-26T15:56:19.978Z,98966.56
2022-10-26T15:58:47.240Z,98971.19
2022-10-26T16:01:18.664Z,98972.78
2022-10-26T16:03:45.945Z,98977.19
2022-10-26T16:06:18.270Z,98964.34
2022-10-26T16:08:50.673Z,98979.63
2022-10-26T16:43:52.781Z,98996.81
2022-10-26T16:46:20.947Z,99002.00
2022-10-26T16:48:48.804Z,99000.53
2022-10-26T16:51:29.339Z,99003.31
2022-10-26T16:53:56.824Z,98998.53
2022-10-26T16:56:28.181Z,99007.28
2022-10-26T16:58:55.343Z,98999.63
2022-10-26T17:01:22.414Z,99008.19
2022-10-26T17:03:50.455Z,99002.84
2022-10-26T17:06:17.587Z,99013.41
2022-10-26T17:08:44.489Z,99008.84
2022-10-26T17:11:16.305Z,99005.69
2022-10-26T17:13:43.272Z,99017.09
2022-10-26T17:16:15.476Z,99022.78
2022-10-26T17:18:42.679Z,99025.66
2022-10-26T17:21:10.341Z,99026.41
2022-10-26T17:23:37.444Z,99035.41
2022-10-26T17:26:05.639Z,99035.06
2022-10-26T17:28:32.820Z,99036.66
2022-10-26T17:31:09.817Z,99037.13
2022-10-26T17:33:37.412Z,99036.75
2022-10-26T17:36:05.351Z,99043.81
2022-10-26T17:38:33.269Z,99048.69
2022-10-26T17:41:03.698Z,99048.13
2022-10-26T17:43:31.812Z,99058.50
2022-10-26T17:46:02.122Z,99052.44
2022-10-26T17:48:29.702Z,99050.69
2022-10-26T17:51:01.414Z,99052.34
2022-10-26T17:53:28.544Z,99064.66
2022-10-26T17:56:02.954Z,99062.16
2022-10-26T17:58:29.892Z,99062.38
2022-10-26T18:01:00.104Z,99066.47
2022-10-26T18:03:27.037Z,99062.28
2022-10-26T18:05:53.995Z,99062.56
2022-10-26T18:08:21.101Z,99072.91
2022-10-26T18:10:48.856Z,99073.16
2022-10-26T18:13:15.921Z,99063.53
2022-10-26T18:15:42.825Z,99079.38
2022-10-26T18:18:09.802Z,99078.78
2022-10-26T18:20:36.743Z,99083.66
2022-10-26T18:23:03.749Z,99083.09
2022-10-26T18:25:31.594Z,99093.47
2022-10-26T18:27:58.559Z,99096.47
2022-10-26T18:30:25.663Z,99099.22
2022-10-26T18:32:53.375Z,99086.81
2022-10-26T18:35:20.579Z,99096.09
2022-10-26T18:37:47.839Z,99096.09
2022-10-26T18:40:15.173Z,99099.94
2022-10-26T18:42:42.489Z,99102.06
2022-10-26T18:45:09.943Z,99112.19
2022-10-26T18:47:36.887Z,99104.22
2022-10-26T18:50:04.823Z,99101.72
2022-10-26T18:52:31.811Z,99104.69
2022-10-26T18:54:58.713Z,99118.66
2022-10-26T18:57:27.217Z,99115.31
2022-10-26T18:59:55.094Z,99117.22
2022-10-26T19:02:23.239Z,99120.19
2022-10-26T19:04:51.815Z,99114.97
2022-10-26T19:07:18.713Z,99124.25
2022-10-26T19:09:45.706Z,99130.81
2022-10-26T19:12:12.604Z,99124.75
2022-10-26T19:14:39.576Z,99128.56
2022-10-26T19:17:06.579Z,99121.41
2022-10-26T19:19:33.522Z,99127.13
2022-10-26T19:22:01.242Z,99129.03
2022-10-26T19:24:28.282Z,99141.06
2022-10-26T19:26:56.762Z,99146.78
2022-10-26T19:29:23.726Z,99141.53
2022-10-26T19:31:52.246Z,99148.09
2022-10-26T19:34:19.440Z,99147.50
2022-10-26T19:36:47.408Z,99149.41
2022-10-26T19:39:15.662Z,99146.94
2022-10-26T19:41:42.979Z,99145.25
2022-10-26T19:44:10.719Z,99157.03
2022-10-26T19:46:38.298Z,99154.53
2022-10-26T19:49:05.407Z,99160.22
2022-10-26T19:51:32.600Z,99167.63
2022-10-26T19:54:03.550Z,99167.63
2022-10-26T19:56:32.213Z,99165.97
2022-10-26T19:58:59.146Z,99173.53
2022-10-26T20:01:26.158Z,99184.50
2022-10-26T20:03:53.145Z,99180.94
2022-10-26T20:06:20.171Z,99186.66
2022-10-26T20:08:48.100Z,99184.16
2022-10-26T20:11:16.438Z,99191.53
2022-10-26T20:13:43.880Z,99195.34
2022-10-26T20:16:11.074Z,99194.50
2022-10-26T20:18:41.177Z,99190.13
2022-10-26T20:21:11.551Z,99189.28
2022-10-26T20:23:38.556Z,99201.28
2022-10-26T20:28:33.518Z,99197.72
2022-10-26T20:31:00.458Z,99202.34
2022-10-26T20:33:27.711Z,99203.41
2022-10-26T20:36:01.028Z,99212.72
2022-10-26T20:38:28.305Z,99204.75
2022-10-26T20:40:57.096Z,99204.97
2022-10-26T20:43:24.959Z,99196.75
2022-10-26T20:45:52.298Z,99203.28
2022-10-26T20:48:19.495Z,99202.50
2022-10-26T20:50:50.243Z,99201.66
2022-10-26T20:53:28.778Z,99214.50
2022-10-26T20:55:57.509Z,99212.84
2022-10-26T20:58:32.963Z,99219.38
2022-10-26T21:01:01.132Z,99220.47
2022-10-26T21:03:28.151Z,99222.38
2022-10-26T21:05:55.082Z,99216.88
2022-10-26T21:08:22.344Z,99227.00
2022-10-26T21:10:52.489Z,99225.31
2022-10-26T21:13:19.453Z,99219.84
2022-10-26T21:15:46.383Z,99217.34
2022-10-26T21:18:13.370Z,99217.34
2022-10-26T21:20:40.321Z,99224.97
2022-10-26T21:23:07.231Z,99224.97
2022-10-26T21:25:36.699Z,99225.81
2022-10-26T21:28:04.005Z,99224.13
2022-10-26T21:30:30.898Z,99228.78
2022-10-26T21:35:29.646Z,99231.72
2022-10-26T21:37:56.917Z,99229.25
2022-10-26T21:40:23.969Z,99226.50
2022-10-26T21:42:51.833Z,99228.41
2022-10-26T21:45:19.100Z,99227.56
2022-10-26T21:47:46.114Z,99238.53
2022-10-26T21:50:12.993Z,99231.38
2022-10-26T21:52:39.958Z,99235.19
2022-10-26T21:55:07.112Z,99232.22
2022-10-26T21:57:34.602Z,99236.84
2022-10-26T22:00:01.559Z,99239.81
2022-10-26T22:02:28.533Z,99233.53
2022-10-26T22:04:55.550Z,99231.84
2022-10-26T22:07:22.506Z,99232.91
2022-10-26T22:10:07.657Z,99233.97
2022-10-26T22:12:36.359Z,99243.03
2022-10-26T22:15:03.328Z,99233.13
2022-10-26T22:17:30.222Z,99239.44
2022-10-26T22:19:57.103Z,99240.50
2022-10-26T22:22:24.028Z,99250.66
2022-10-26T22:24:50.991Z,99241.59
2022-10-26T22:27:17.885Z,99242.66
2022-10-26T22:29:44.839Z,99245.41
2022-10-26T22:32:11.737Z,99245.41
2022-10-26T22:34:38.681Z,99242.66
2022-10-26T22:37:05.625Z,99243.72
2022-10-26T22:39:32.643Z,99242.06
2022-10-26T22:41:59.581Z,99240.16
2022-10-26T22:44:26.524Z,99237.41
2022-10-26T22:46:53.456Z,99256.84
2022-10-26T22:49:20.397Z,99252.41
2022-10-26T22:51:47.354Z,99247.16
2022-10-26T22:54:14.421Z,99256.22
2022-10-26T22:56:41.389Z,99262.75
2022-10-26T22:59:08.399Z,99268.22
2022-10-26T23:01:39.350Z,99263.81
2022-10-26T23:04:06.344Z,99268.22
2022-10-26T23:06:33.474Z,99263.81
2022-10-26T23:09:00.355Z,99264.91
2022-10-26T23:11:28.257Z,99264.06
2022-10-26T23:13:56.008Z,99265.75
2022-10-26T23:16:23.390Z,99262.38
2022-10-26T23:18:50.463Z,99259.88
2022-10-26T23:21:17.649Z,99259.03
2022-10-26T23:23:44.952Z,99267.03
2022-10-26T23:26:23.618Z,99267.03
2022-10-26T23:28:50.649Z,99259.88
2022-10-26T23:31:25.865Z,99268.09
2022-10-26T23:33:53.713Z,99263.69
2022-10-26T23:36:20.718Z,99265.59
2022-10-26T23:38:48.032Z,99268.34
2022-10-26T23:41:14.989Z,99260.34
2022-10-26T23:43:42.014Z,99275.09
2022-10-26T23:46:09.037Z,99267.94
2022-10-26T23:48:36.032Z,99263.31
2022-10-26T23:51:03.001Z,99264.16
2022-10-26T23:53:29.990Z,99265.22
2022-10-26T23:55:56.890Z,99262.47
2022-10-26T23:58:23.845Z,99267.13
